KSPF/SPF METAR and TAF weather

Enter ICAO airport designator
Station Type Date Time Source
KSPF METAR 2021/04/17 02:15 UTC NOAA

KSPF 170215Z AUTO 25004KT 10SM SCT029 BKN080 BKN100 00/M00 A3023 RMK AO2 PWINO


Station Type Date Time Source
KSPF Decoded METAR 2021/04/17 02:15 UTC NOAA

Spearfish / Clyde Ice, SD, United States (KSPF) 44-29N 103-47W
Apr 16, 2021 - 10:15 PM EDT / 2021.04.17 0215 UTC
Wind: from the WSW (250 degrees) at 5 MPH (4 KT):0
Visibility: 10 mile(s):0
Sky conditions: mostly cloudy
Temperature: 32 F (0 C)
Windchill: 26 F (-3 C):1
Dew Point: 32 F (0 C)
Relative Humidity: 100%
Pressure (altimeter): 30.23 in. Hg (1023 hPa)
ob: KSPF 170215Z AUTO 25004KT 10SM SCT029 BKN080 BKN100 00/M00 A3023 RMK AO2 PWINO
cycle: 2

Station Type Date Time Source
KSPF TAF UTC NOAA

Error!

Example: see airport list